Parry Sound, Canada
Current Conditions -  °F | °C
As of 8:00 PM on Friday 24 Oct 2014 (Local Time) from CYQA Reporting Station
Few Clouds Few Clouds  
Wind Chill: 43°   Ceiling: Unl
Heat Index: 43°   Visibility: 9mi
Dew Point: 39°   Wind: 2mph
Humidity: 87%   Direction: 300°WNW
Pressure: 29.92"   Gusts: NA
Location:  45.34°N, 80.04°W
Report Text: CYQA 250000Z AUTO 30002KT 9SM FEW075 06/04 A2992 RMK SLP144
Loading
Personal Weather Stations






























Interactive Weather Map New forecast layout! Learn more

10-Day Weather Forecast

Advertisements
Track Severe Weather on mobile